Capitol Logistics 519




WSSS
Changi International Airport
Singapore, SG
RJAA
Tokyo-Narita International Airport
Tokyo, JP

Activity Log

Date Flight Route Aircraft Duration
No Flights Yet

Route Details

Aircraft Information
Group: Trans-Pacific Ops
Types: B744,B763,MD11
Route Data
Demand: V
Distance: 2896nm
Duration: 6h 45m
Recm'd Route: TOMA2E TOMAN L625 MEVIN B462 KAZIK Y59 AZAMA Y57 YULIA Y89 GUPER Y81 RUTAS RUTASG
Origin Wx: WSSS 270500Z 16008KT 130V190 9999 SCT020 BKN300 31/26 Q1008 NOSIG
Dest. Wx: RJAA 270500Z 14012KT 9999 FEW010 SCT100 BKN/// 22/20 Q0997 NOSIG RMK 2CU010 3AC100 A2946
Notes:

Financial History
Total Freight: 0lbs
Average Load: 0lbs/flt
Fuel Used: 0lbs
Avg. Fuel Used: 0lbs/flt
Fuel Expense: $0
Avg. Fuel Expense: $0
Avg. Fuel Cost: $0/lbs
Total Gross Income: $0
Pilot Pay: $0
Total Expenses: $0
Total Revenue: $0
Average Revenue: $0